Nearby METAR Reports

 

GCLP - Las Palmas/Gando, Spain
Distance from station: NE 26km
Updated: 19/09/2021 22:30
Partly cloudy
Partly cloudy
 Wind from N
Wind: N 19 km/h
Temperature: 24°C
Dew Point: 17°C
Humidity: 65%
Barometer: 1021 hPa
Clouds: Partly cloudy
Visibility: 10 km
Cloud details: Partly cloudy 762 m
Partly cloudy 1219 m
2021/09/19 22:30 GCLP 192230Z 36010KT 9999 SCT025 SCT040 24/17 Q1021 NOSIG
GCTS - Tenerife Sur/Rei, Spain
Distance from station: WNW 102km
Updated: 19/09/2021 22:30
Partly cloudy
Partly cloudy
 Wind from E
Wind: E 24 km/h
Temperature: 23°C
Dew Point: 18°C
Humidity: 74%
Barometer: 1021 hPa
Clouds: Partly cloudy
Visibility: 10 km
Cloud details: Few Clouds 762 m
Partly cloudy 1219 m
2021/09/19 22:30 GCTS 192230Z 08013KT 9999 FEW025 SCT040 23/18 Q1021 NOSIG
 
GCXO - Tenerife/Los Rod, Spain
Distance from station: NW 110km
Updated: 19/09/2021 22:30
Few Clouds
Few Clouds
 Wind from NNW
Wind: NNW 17 km/h
Temperature: 18°C
Dew Point: 15°C
Humidity: 83%
Barometer: 1024 hPa
Clouds: Few Clouds
Visibility: 10 km
Cloud details: Few Clouds 853 m
2021/09/19 22:30 GCXO 192230Z AUTO 33009KT 9999 FEW028 18/15 Q1024
GCGM - La Gomera Arpt, Spain
Distance from station: W 164km
Updated: 19/09/2021 22:30
Clear
Clear
 Wind from SW
Wind: SW 6 km/h
Temperature: 23°C
Dew Point: 20°C
Humidity: 83%
Barometer: 1022 hPa
Summary: Clear
Visibility: greater than 10 km
2021/09/19 22:30 GCGM 192230Z AUTO 23003KT CAVOK 23/20 Q1022 RMK R09/VRB01KT ARP/26003KT 220V300
 
GCFV - Fuerteventura Ar, Spain
Distance from station: ENE 183km
Updated: 19/09/2021 22:30

 Wind from N
Wind: N 15 km/h
Temperature: 23°C
Dew Point: 16°C
Humidity: 65%
Barometer: 1021 hPa
Visibility: 10 km
2021/09/19 22:30 GCFV 192230Z AUTO 36008KT 9999 ////// 23/16 Q1021
GCHI - Hierro Airport, Spain
Distance from station: W 226km
Updated: 19/09/2021 22:30
Clear
Clear
 Wind from NNE
Wind: NNE 24 km/h
Temperature: 24°C
Dew Point: 19°C
Humidity: 74%
Barometer: 1021 hPa
Summary: Clear
Visibility: greater than 10 km
2021/09/19 22:30 GCHI 192230Z AUTO 03013KT CAVOK 24/19 Q1021
 
GCLA - La Palma Airport, Spain
Distance from station: WNW 233km
Updated: 19/09/2021 22:30
Few Clouds
Few Clouds
 Wind from NW
Wind: NW 15 km/h
Temperature: 23°C
Dew Point: 16°C
Humidity: 65%
Barometer: 1022 hPa
Clouds: Few Clouds
Visibility: 10 km
Cloud details: Partly cloudy 914 m
Few Clouds 1219 m
2021/09/19 22:30 GCLA 192230Z 32008KT 9999 SCT030 FEW040TCU 23/16 Q1022
GCRR - Arrecife/Lanzaro, Spain
Distance from station: NE 234km
Updated: 19/09/2021 22:30
Few Clouds
Few Clouds
 Wind from NNE
Wind: NNE 9 km/h
Temperature: 23°C
Dew Point: 16°C
Humidity: 65%
Barometer: 1021 hPa
Clouds: Few Clouds
Visibility: 10 km
Cloud details: Few Clouds 457 m
2021/09/19 22:30 GCRR 192230Z 02005KT 9999 FEW015 23/16 Q1021
 
LPMA - Funchal/Madeira, Portugal
Distance from station: NNW 556km
Updated: 19/09/2021 22:30
Partly cloudy
Partly cloudy
 Wind from NNE
Wind: NNE 24 km/h
Temperature: 23°C
Dew Point: 16°C
Humidity: 65%
Barometer: 1024 hPa
Clouds: Partly cloudy
Visibility: 10 km
Cloud details: Partly cloudy 457 m
2021/09/19 22:30 LPMA 192230Z 02013KT 340V040 9999 SCT015 23/16 Q1024
LPPS - Porto Santo Isla, Portugal
Distance from station: N 594km
Updated: 19/09/2021 22:30
Light drizzle, Mostly cloudy
Light drizzle, Mostly cloudy
 Wind from NE
Wind: NE 17 km/h
Temperature: 21°C
Dew Point: 16°C
Humidity: 73%
Barometer: 1024 hPa
Summary: Light Drizzle
Clouds: Mostly cloudy
Visibility: 8 km
Cloud details: Few Clouds 457 m
Mostly cloudy 914 m
2021/09/19 22:30 LPPS 192230Z 05009KT 350V100 8000 -DZ FEW015 BKN030 21/16 Q1024